Menu Horizontal
luftaufnahme
Willkommen auf der Webseite der privaten Wetterstation -- Taufkirchen an der Pram -- 48°24'29,52" Nord  <>  13°32'13,20" Ost

Wetterdaten - Mittwoch, 26.06.2019 - Taufkirchen an der Pram     336 m über NN
Wetterdaten: aktuell Mittwoch, 26.06.2019 00:40
Datum Zeit Temp. A. Feuchte A. Luftdruck Regen Wind Sonnenschein UV Solar Windchill Empfang
26.06.2019 00:40 19,0 °C 94 % 1021,1 hPa 0,0 l/m² 0,0 km/h 0 min 0,0 UV-I 0 W/m² 19,0 °C 100 %
26.06.2019 00:30 19,1 °C 94 % 1021,2 hPa 0,0 l/m² 0,0 km/h 0 min 0,0 UV-I 0 W/m² 19,1 °C 100 %
26.06.2019 00:20 19,3 °C 94 % 1021,2 hPa 0,0 l/m² 0,0 km/h 0 min 0,0 UV-I 0 W/m² 19,3 °C 100 %
26.06.2019 00:10 19,3 °C 94 % 1021,2 hPa 0,0 l/m² 0,0 km/h 0 min 0,0 UV-I 0 W/m² 19,3 °C 99 %
26.06.2019 00:00 19,4 °C 93 % 1021,0 hPa 0,0 l/m² 0,0 km/h 0 min 0,0 UV-I 0 W/m² 19,4 °C 100 %
25.06.2019 23:50 19,6 °C 93 % 1021,0 hPa 0,0 l/m² 0,0 km/h 0 min 0,0 UV-I 0 W/m² 19,6 °C 100 %
25.06.2019 23:40 19,7 °C 93 % 1020,9 hPa 0,0 l/m² 0,0 km/h 0 min 0,0 UV-I 0 W/m² 19,7 °C 100 %
25.06.2019 23:30 19,9 °C 93 % 1020,9 hPa 0,0 l/m² 0,0 km/h 0 min 0,0 UV-I 0 W/m² 19,9 °C 100 %
25.06.2019 23:20 20,1 °C 92 % 1020,8 hPa 0,0 l/m² 0,0 km/h 0 min 0,0 UV-I 0 W/m² 20,1 °C 100 %
25.06.2019 23:10 20,3 °C 92 % 1020,7 hPa 0,0 l/m² 0,0 km/h 0 min 0,0 UV-I 0 W/m² 20,3 °C 100 %
25.06.2019 23:00 20,6 °C 91 % 1020,7 hPa 0,0 l/m² 0,0 km/h 0 min 0,0 UV-I 0 W/m² 20,6 °C 100 %
25.06.2019 22:50 20,9 °C 90 % 1020,7 hPa 0,0 l/m² 0,0 km/h 0 min 0,0 UV-I 0 W/m² 20,9 °C 100 %
25.06.2019 22:40 21,4 °C 88 % 1020,7 hPa 0,0 l/m² 0,0 km/h 0 min 0,0 UV-I 0 W/m² 21,4 °C 100 %
25.06.2019 22:30 21,6 °C 87 % 1020,7 hPa 0,0 l/m² 0,0 km/h 0 min 0,0 UV-I 0 W/m² 21,6 °C 100 %
25.06.2019 22:20 21,4 °C 90 % 1020,7 hPa 0,0 l/m² 0,0 km/h 0 min 0,0 UV-I 0 W/m² 21,4 °C 100 %
25.06.2019 22:10 21,6 °C 90 % 1020,6 hPa 0,0 l/m² 0,0 km/h 0 min 0,0 UV-I 0 W/m² 21,6 °C 91 %
25.06.2019 22:00 22,1 °C 89 % 1020,6 hPa 0,0 l/m² 0,0 km/h 0 min 0,0 UV-I 0 W/m² 22,1 °C 100 %
25.06.2019 21:50 22,4 °C 88 % 1020,6 hPa 0,0 l/m² 0,0 km/h 0 min 0,0 UV-I 0 W/m² 22,4 °C 100 %
25.06.2019 21:40 22,9 °C 87 % 1020,5 hPa 0,0 l/m² 0,0 km/h 0 min 0,0 UV-I 0 W/m² 22,9 °C 100 %
25.06.2019 21:30 23,2 °C 86 % 1020,4 hPa 0,0 l/m² 0,0 km/h 0 min 0,0 UV-I 0 W/m² 23,2 °C 100 %
25.06.2019 21:20 23,6 °C 85 % 1020,3 hPa 0,0 l/m² 0,0 km/h 0 min 0,0 UV-I 0 W/m² 23,6 °C 100 %
25.06.2019 21:10 24,1 °C 84 % 1020,2 hPa 0,0 l/m² 0,0 km/h 0 min 0,0 UV-I 8 W/m² 24,1 °C 100 %
25.06.2019 21:00 24,6 °C 83 % 1020,1 hPa 0,0 l/m² 0,0 km/h 0 min 0,0 UV-I 16 W/m² 24,6 °C 100 %
25.06.2019 20:50 25,3 °C 81 % 1020,0 hPa 0,0 l/m² 0,0 km/h 0 min 0,0 UV-I 28 W/m² 25,3 °C 100 %
25.06.2019 20:40 26,0 °C 80 % 1020,1 hPa 0,0 l/m² 0,0 km/h 0 min 0,0 UV-I 35 W/m² 26,0 °C 100 %
25.06.2019 20:30 26,9 °C 79 % 1020,0 hPa 0,0 l/m² 0,0 km/h 0 min 0,0 UV-I 58 W/m² 26,9 °C 100 %
25.06.2019 20:20 27,7 °C 70 % 1019,9 hPa 0,0 l/m² 0,0 km/h 0 min 0,0 UV-I 78 W/m² 27,7 °C 100 %
25.06.2019 20:10 28,2 °C 67 % 1019,9 hPa 0,0 l/m² 0,0 km/h 10 min 0,0 UV-I 108 W/m² 28,2 °C 100 %
25.06.2019 20:00 28,3 °C 65 % 1019,9 hPa 0,0 l/m² 0,0 km/h 0 min 0,0 UV-I 92 W/m² 28,3 °C 100 %
25.06.2019 19:50 28,8 °C 60 % 1019,9 hPa 0,0 l/m² 0,0 km/h 10 min 0,0 UV-I 114 W/m² 28,8 °C 100 %
25.06.2019 19:40 29,6 °C 57 % 1019,8 hPa 0,0 l/m² 0,0 km/h 10 min 0,0 UV-I 140 W/m² 29,6 °C 100 %
25.06.2019 19:30 29,9 °C 53 % 1019,8 hPa 0,0 l/m² 0,0 km/h 10 min 0,4 UV-I 187 W/m² 29,9 °C 100 %
25.06.2019 19:20 30,1 °C 54 % 1019,7 hPa 0,0 l/m² 0,0 km/h 10 min 0,6 UV-I 181 W/m² 30,1 °C 100 %
25.06.2019 19:10 30,4 °C 53 % 1019,7 hPa 0,0 l/m² 0,0 km/h 10 min 0,7 UV-I 229 W/m² 30,4 °C 100 %
25.06.2019 19:00 30,9 °C 54 % 1019,7 hPa 0,0 l/m² 0,0 km/h 10 min 0,8 UV-I 301 W/m² 30,9 °C 100 %
25.06.2019 18:50 31,0 °C 51 % 1019,7 hPa 0,0 l/m² 0,0 km/h 10 min 0,9 UV-I 308 W/m² 31,0 °C 100 %
25.06.2019 18:40 31,4 °C 52 % 1019,7 hPa 0,0 l/m² 0,0 km/h 10 min 1,0 UV-I 321 W/m² 31,4 °C 99 %
25.06.2019 18:30 31,8 °C 45 % 1019,7 hPa 0,0 l/m² 0,4 km/h 10 min 1,2 UV-I 332 W/m² 31,8 °C 100 %
25.06.2019 18:20 31,9 °C 50 % 1019,7 hPa 0,0 l/m² 0,4 km/h 10 min 1,5 UV-I 450 W/m² 31,9 °C 100 %
25.06.2019 18:10 31,8 °C 49 % 1019,7 hPa 0,0 l/m² 0,3 km/h 10 min 1,6 UV-I 435 W/m² 31,8 °C 99 %
25.06.2019 18:00 32,3 °C 46 % 1019,8 hPa 0,0 l/m² 0,3 km/h 10 min 1,8 UV-I 484 W/m² 32,3 °C 100 %
25.06.2019 17:50 32,5 °C 46 % 1019,8 hPa 0,0 l/m² 0,0 km/h 10 min 2,0 UV-I 494 W/m² 32,5 °C 100 %
25.06.2019 17:40 32,2 °C 47 % 1019,8 hPa 0,0 l/m² 0,3 km/h 10 min 2,2 UV-I 527 W/m² 32,2 °C 100 %
25.06.2019 17:30 32,7 °C 47 % 1019,8 hPa 0,0 l/m² 0,1 km/h 10 min 2,5 UV-I 535 W/m² 32,7 °C 100 %
25.06.2019 17:20 32,3 °C 46 % 1019,8 hPa 0,0 l/m² 0,2 km/h 10 min 2,6 UV-I 541 W/m² 32,3 °C 100 %
25.06.2019 17:10 32,4 °C 48 % 1019,8 hPa 0,0 l/m² 0,6 km/h 10 min 3,0 UV-I 606 W/m² 32,4 °C 100 %
25.06.2019 17:00 32,3 °C 44 % 1019,9 hPa 0,0 l/m² 0,7 km/h 10 min 3,1 UV-I 561 W/m² 32,3 °C 100 %
25.06.2019 16:50 32,2 °C 44 % 1020,0 hPa 0,0 l/m² 2,0 km/h 10 min 3,4 UV-I 598 W/m² 32,2 °C 100 %
25.06.2019 16:40 31,9 °C 47 % 1020,0 hPa 0,0 l/m² 1,1 km/h 10 min 3,7 UV-I 615 W/m² 31,9 °C 100 %
25.06.2019 16:30 32,2 °C 48 % 1020,0 hPa 0,0 l/m² 0,8 km/h 10 min 3,9 UV-I 632 W/m² 32,2 °C 100 %
25.06.2019 16:20 32,3 °C 49 % 1020,0 hPa 0,0 l/m² 0,3 km/h 10 min 4,4 UV-I 697 W/m² 32,3 °C 100 %
25.06.2019 16:10 32,1 °C 48 % 1020,0 hPa 0,0 l/m² 1,6 km/h 10 min 4,7 UV-I 717 W/m² 32,1 °C 100 %
25.06.2019 16:00 32,1 °C 44 % 1020,0 hPa 0,0 l/m² 2,6 km/h 10 min 5,0 UV-I 736 W/m² 32,1 °C 100 %
25.06.2019 15:50 31,9 °C 45 % 1020,0 hPa 0,0 l/m² 2,0 km/h 10 min 5,3 UV-I 750 W/m² 31,9 °C 100 %
25.06.2019 15:40 32,0 °C 46 % 1020,1 hPa 0,0 l/m² 2,9 km/h 10 min 5,5 UV-I 761 W/m² 32,0 °C 100 %
25.06.2019 15:30 31,9 °C 48 % 1020,1 hPa 0,0 l/m² 3,3 km/h 10 min 5,8 UV-I 782 W/m² 31,9 °C 99 %
25.06.2019 15:20 31,9 °C 46 % 1020,1 hPa 0,0 l/m² 2,5 km/h 10 min 6,2 UV-I 796 W/m² 31,9 °C 100 %
25.06.2019 15:10 31,7 °C 49 % 1020,1 hPa 0,0 l/m² 3,4 km/h 10 min 6,4 UV-I 807 W/m² 31,7 °C 100 %
25.06.2019 15:00 31,2 °C 49 % 1020,1 hPa 0,0 l/m² 5,1 km/h 10 min 6,7 UV-I 817 W/m² 31,2 °C 99 %
25.06.2019 14:50 31,2 °C 49 % 1020,2 hPa 0,0 l/m² 5,7 km/h 10 min 6,9 UV-I 829 W/m² 31,2 °C 100 %
25.06.2019 14:40 31,2 °C 49 % 1020,1 hPa 0,0 l/m² 5,6 km/h 10 min 7,1 UV-I 840 W/m² 31,2 °C 100 %
25.06.2019 14:30 31,3 °C 48 % 1020,1 hPa 0,0 l/m² 5,6 km/h 10 min 7,3 UV-I 845 W/m² 31,3 °C 100 %
25.06.2019 14:20 31,1 °C 49 % 1020,2 hPa 0,0 l/m² 6,8 km/h 10 min 7,6 UV-I 854 W/m² 31,1 °C 100 %
25.06.2019 14:10 30,7 °C 50 % 1020,2 hPa 0,0 l/m² 7,0 km/h 10 min 7,7 UV-I 858 W/m² 30,7 °C 100 %
25.06.2019 14:00 30,6 °C 53 % 1020,2 hPa 0,0 l/m² 6,9 km/h 10 min 7,8 UV-I 861 W/m² 30,6 °C 100 %
25.06.2019 13:50 30,3 °C 51 % 1020,2 hPa 0,0 l/m² 9,7 km/h 10 min 8,0 UV-I 864 W/m² 30,0 °C 100 %
25.06.2019 13:40 30,2 °C 52 % 1020,2 hPa 0,0 l/m² 9,8 km/h 10 min 8,1 UV-I 868 W/m² 29,9 °C 99 %
25.06.2019 13:30 30,4 °C 54 % 1020,3 hPa 0,0 l/m² 7,0 km/h 10 min 8,1 UV-I 867 W/m² 30,4 °C 100 %
25.06.2019 13:20 30,3 °C 51 % 1020,3 hPa 0,0 l/m² 7,7 km/h 10 min 8,1 UV-I 863 W/m² 30,2 °C 99 %
25.06.2019 13:10 29,8 °C 55 % 1020,2 hPa 0,0 l/m² 7,2 km/h 10 min 8,1 UV-I 860 W/m² 29,7 °C 100 %
25.06.2019 13:00 29,8 °C 55 % 1020,3 hPa 0,0 l/m² 6,8 km/h 10 min 8,1 UV-I 859 W/m² 29,8 °C 100 %
25.06.2019 12:50 29,4 °C 55 % 1020,4 hPa 0,0 l/m² 8,4 km/h 10 min 8,0 UV-I 854 W/m² 29,2 °C 100 %
25.06.2019 12:40 29,1 °C 54 % 1020,4 hPa 0,0 l/m² 9,0 km/h 10 min 7,9 UV-I 848 W/m² 28,8 °C 100 %
25.06.2019 12:30 29,2 °C 57 % 1020,4 hPa 0,0 l/m² 7,6 km/h 10 min 7,8 UV-I 840 W/m² 29,1 °C 100 %
25.06.2019 12:20 29,1 °C 57 % 1020,4 hPa 0,0 l/m² 6,1 km/h 10 min 7,7 UV-I 830 W/m² 29,1 °C 100 %
25.06.2019 12:10 28,5 °C 59 % 1020,4 hPa 0,0 l/m² 8,7 km/h 10 min 7,6 UV-I 822 W/m² 28,2 °C 100 %
25.06.2019 12:00 28,4 °C 57 % 1020,4 hPa 0,0 l/m² 10,1 km/h 10 min 7,4 UV-I 811 W/m² 27,9 °C 100 %
25.06.2019 11:50 28,2 °C 60 % 1020,4 hPa 0,0 l/m² 8,8 km/h 10 min 7,2 UV-I 799 W/m² 27,9 °C 100 %
25.06.2019 11:40 28,1 °C 59 % 1020,3 hPa 0,0 l/m² 9,1 km/h 10 min 7,0 UV-I 787 W/m² 27,7 °C 100 %
25.06.2019 11:30 27,9 °C 58 % 1020,4 hPa 0,0 l/m² 8,7 km/h 10 min 6,7 UV-I 770 W/m² 27,5 °C 100 %
25.06.2019 11:20 27,6 °C 59 % 1020,4 hPa 0,0 l/m² 10,7 km/h 10 min 6,5 UV-I 756 W/m² 26,9 °C 99 %
25.06.2019 11:10 27,4 °C 60 % 1020,3 hPa 0,0 l/m² 10,1 km/h 10 min 6,2 UV-I 741 W/m² 26,8 °C 100 %
25.06.2019 11:00 27,2 °C 60 % 1020,2 hPa 0,0 l/m² 11,3 km/h 10 min 6,0 UV-I 724 W/m² 26,4 °C 100 %
25.06.2019 10:50 26,9 °C 61 % 1020,1 hPa 0,0 l/m² 10,8 km/h 10 min 5,7 UV-I 706 W/m² 26,1 °C 100 %
25.06.2019 10:40 27,1 °C 61 % 1020,1 hPa 0,0 l/m² 6,4 km/h 10 min 5,4 UV-I 687 W/m² 27,1 °C 100 %
25.06.2019 10:30 26,8 °C 62 % 1020,1 hPa 0,0 l/m² 8,0 km/h 10 min 5,1 UV-I 666 W/m² 26,5 °C 100 %
25.06.2019 10:20 26,4 °C 61 % 1020,1 hPa 0,0 l/m² 9,9 km/h 10 min 4,8 UV-I 646 W/m² 25,7 °C 100 %
25.06.2019 10:10 26,2 °C 63 % 1020,1 hPa 0,0 l/m² 9,4 km/h 10 min 4,5 UV-I 624 W/m² 25,6 °C 100 %
25.06.2019 10:00 25,8 °C 64 % 1020,0 hPa 0,0 l/m² 11,0 km/h 10 min 4,2 UV-I 603 W/m² 24,9 °C 100 %
25.06.2019 09:50 25,6 °C 64 % 1020,0 hPa 0,0 l/m² 10,0 km/h 10 min 3,9 UV-I 580 W/m² 24,8 °C 100 %
25.06.2019 09:40 25,4 °C 65 % 1020,0 hPa 0,0 l/m² 10,6 km/h 10 min 3,6 UV-I 557 W/m² 24,5 °C 100 %
25.06.2019 09:30 25,3 °C 65 % 1019,9 hPa 0,0 l/m² 9,5 km/h 10 min 3,4 UV-I 533 W/m² 24,6 °C 100 %
25.06.2019 09:20 25,0 °C 65 % 1019,9 hPa 0,0 l/m² 8,9 km/h 10 min 3,1 UV-I 510 W/m² 24,4 °C 100 %
25.06.2019 09:10 24,7 °C 65 % 1019,9 hPa 0,0 l/m² 8,7 km/h 10 min 2,8 UV-I 485 W/m² 24,1 °C 100 %
25.06.2019 09:00 24,5 °C 67 % 1019,9 hPa 0,0 l/m² 9,5 km/h 10 min 2,6 UV-I 461 W/m² 23,7 °C 100 %
25.06.2019 08:50 24,3 °C 67 % 1019,8 hPa 0,0 l/m² 9,0 km/h 10 min 2,3 UV-I 435 W/m² 23,6 °C 100 %
25.06.2019 08:40 24,2 °C 67 % 1019,9 hPa 0,0 l/m² 7,6 km/h 10 min 2,1 UV-I 409 W/m² 23,9 °C 99 %
25.06.2019 08:30 24,0 °C 70 % 1019,9 hPa 0,0 l/m² 0,0 km/h 10 min 1,9 UV-I 384 W/m² 24,0 °C 100 %
25.06.2019 08:20 23,6 °C 74 % 1020,0 hPa 0,0 l/m² 0,0 km/h 10 min 1,7 UV-I 358 W/m² 23,6 °C 100 %
25.06.2019 08:10 22,9 °C 73 % 1019,9 hPa 0,0 l/m² 0,0 km/h 10 min 1,5 UV-I 332 W/m² 22,9 °C 100 %
25.06.2019 08:00 22,6 °C 75 % 1019,8 hPa 0,0 l/m² 0,0 km/h 10 min 1,3 UV-I 305 W/m² 22,6 °C 100 %
25.06.2019 07:50 21,8 °C 75 % 1019,9 hPa 0,0 l/m² 0,0 km/h 10 min 1,2 UV-I 277 W/m² 21,8 °C 100 %
25.06.2019 07:40 21,7 °C 76 % 1019,8 hPa 0,0 l/m² 0,0 km/h 10 min 1,0 UV-I 253 W/m² 21,7 °C 100 %
25.06.2019 07:30 21,3 °C 77 % 1019,9 hPa 0,0 l/m² 0,0 km/h 10 min 0,9 UV-I 228 W/m² 21,3 °C 99 %
25.06.2019 07:20 21,0 °C 78 % 1019,9 hPa 0,0 l/m² 0,0 km/h 10 min 0,8 UV-I 203 W/m² 21,0 °C 91 %
25.06.2019 07:10 20,4 °C 80 % 1019,8 hPa 0,0 l/m² 0,0 km/h 10 min 0,7 UV-I 179 W/m² 20,4 °C 100 %
25.06.2019 07:00 20,1 °C 82 % 1019,8 hPa 0,0 l/m² 0,0 km/h 10 min 0,6 UV-I 152 W/m² 20,1 °C 100 %
25.06.2019 06:50 19,2 °C 83 % 1019,7 hPa 0,0 l/m² 0,0 km/h 10 min 0,5 UV-I 125 W/m² 19,2 °C 100 %
25.06.2019 06:40 18,7 °C 86 % 1019,6 hPa 0,0 l/m² 0,0 km/h 0 min 0,3 UV-I 98 W/m² 18,7 °C 100 %
25.06.2019 06:30 18,2 °C 86 % 1019,7 hPa 0,0 l/m² 0,0 km/h 0 min 0,0 UV-I 58 W/m² 18,2 °C 100 %
25.06.2019 06:20 17,8 °C 87 % 1019,7 hPa 0,0 l/m² 0,0 km/h 0 min 0,0 UV-I 24 W/m² 17,8 °C 100 %
25.06.2019 06:10 17,4 °C 88 % 1019,6 hPa 0,0 l/m² 0,0 km/h 0 min 0,0 UV-I 20 W/m² 17,4 °C 100 %
25.06.2019 06:00 17,3 °C 88 % 1019,6 hPa 0,0 l/m² 0,0 km/h 0 min 0,0 UV-I 18 W/m² 17,3 °C 100 %
25.06.2019 05:50 17,1 °C 89 % 1019,7 hPa 0,0 l/m² 0,0 km/h 0 min 0,0 UV-I 15 W/m² 17,1 °C 100 %
25.06.2019 05:40 17,0 °C 89 % 1019,6 hPa 0,0 l/m² 0,0 km/h 0 min 0,0 UV-I 12 W/m² 17,0 °C 100 %
25.06.2019 05:30 17,1 °C 88 % 1019,6 hPa 0,0 l/m² 0,0 km/h 0 min 0,0 UV-I 9 W/m² 17,1 °C 100 %
25.06.2019 05:20 17,4 °C 86 % 1019,6 hPa 0,0 l/m² 0,0 km/h 0 min 0,0 UV-I 6 W/m² 17,4 °C 100 %
25.06.2019 05:10 17,6 °C 86 % 1019,5 hPa 0,0 l/m² 0,0 km/h 0 min 0,0 UV-I 0 W/m² 17,6 °C 100 %
25.06.2019 05:00 17,5 °C 87 % 1019,5 hPa 0,0 l/m² 0,0 km/h 0 min 0,0 UV-I 0 W/m² 17,5 °C 100 %
25.06.2019 04:50 17,8 °C 85 % 1019,5 hPa 0,0 l/m² 0,0 km/h 0 min 0,0 UV-I 0 W/m² 17,8 °C 100 %
25.06.2019 04:40 18,0 °C 84 % 1019,5 hPa 0,0 l/m² 0,0 km/h 0 min 0,0 UV-I 0 W/m² 18,0 °C 100 %
25.06.2019 04:30 18,4 °C 82 % 1019,5 hPa 0,0 l/m² 0,0 km/h 0 min 0,0 UV-I 0 W/m² 18,4 °C 100 %
25.06.2019 04:20 18,7 °C 81 % 1019,6 hPa 0,0 l/m² 0,0 km/h 0 min 0,0 UV-I 0 W/m² 18,7 °C 100 %
25.06.2019 04:10 18,9 °C 80 % 1019,5 hPa 0,0 l/m² 0,0 km/h 0 min 0,0 UV-I 0 W/m² 18,9 °C 100 %
25.06.2019 04:00 19,1 °C 80 % 1019,6 hPa 0,0 l/m² 0,0 km/h 0 min 0,0 UV-I 0 W/m² 19,1 °C 100 %
25.06.2019 03:50 19,2 °C 79 % 1019,6 hPa 0,0 l/m² 0,0 km/h 0 min 0,0 UV-I 0 W/m² 19,2 °C 100 %
25.06.2019 03:40 19,3 °C 79 % 1019,7 hPa 0,0 l/m² 0,0 km/h 0 min 0,0 UV-I 0 W/m² 19,3 °C 100 %
25.06.2019 03:30 19,4 °C 79 % 1019,9 hPa 0,0 l/m² 0,0 km/h 0 min 0,0 UV-I 0 W/m² 19,4 °C 100 %
25.06.2019 03:20 19,6 °C 78 % 1019,8 hPa 0,0 l/m² 0,0 km/h 0 min 0,0 UV-I 0 W/m² 19,6 °C 99 %
25.06.2019 03:10 19,4 °C 80 % 1019,9 hPa 0,0 l/m² 0,0 km/h 0 min 0,0 UV-I 0 W/m² 19,4 °C 100 %
25.06.2019 03:00 19,3 °C 79 % 1020,1 hPa 0,0 l/m² 0,0 km/h 0 min 0,0 UV-I 0 W/m² 19,3 °C 100 %
25.06.2019 02:50 19,6 °C 79 % 1020,0 hPa 0,0 l/m² 0,0 km/h 0 min 0,0 UV-I 0 W/m² 19,6 °C 100 %
25.06.2019 02:40 19,3 °C 80 % 1020,1 hPa 0,0 l/m² 0,0 km/h 0 min 0,0 UV-I 0 W/m² 19,3 °C 100 %
25.06.2019 02:30 19,4 °C 80 % 1020,3 hPa 0,0 l/m² 0,0 km/h 0 min 0,0 UV-I 0 W/m² 19,4 °C 100 %
25.06.2019 02:20 19,5 °C 80 % 1020,3 hPa 0,0 l/m² 0,0 km/h 0 min 0,0 UV-I 0 W/m² 19,5 °C 100 %
25.06.2019 02:10 19,7 °C 78 % 1020,3 hPa 0,0 l/m² 0,0 km/h 0 min 0,0 UV-I 0 W/m² 19,7 °C 100 %
25.06.2019 02:00 20,3 °C 75 % 1020,3 hPa 0,0 l/m² 0,0 km/h 0 min 0,0 UV-I 0 W/m² 20,3 °C 100 %
25.06.2019 01:50 20,6 °C 75 % 1020,4 hPa 0,0 l/m² 0,0 km/h 0 min 0,0 UV-I 0 W/m² 20,6 °C 100 %
25.06.2019 01:40 20,7 °C 74 % 1020,4 hPa 0,0 l/m² 0,0 km/h 0 min 0,0 UV-I 0 W/m² 20,7 °C 100 %
25.06.2019 01:30 20,3 °C 76 % 1020,3 hPa 0,0 l/m² 0,0 km/h 0 min 0,0 UV-I 0 W/m² 20,3 °C 100 %
25.06.2019 01:20 20,1 °C 78 % 1020,6 hPa 0,0 l/m² 0,0 km/h 0 min 0,0 UV-I 0 W/m² 20,1 °C 100 %
25.06.2019 01:10 20,0 °C 79 % 1020,6 hPa 0,0 l/m² 0,0 km/h 0 min 0,0 UV-I 0 W/m² 20,0 °C 100 %
25.06.2019 01:00 20,1 °C 79 % 1020,6 hPa 0,0 l/m² 0,0 km/h 0 min 0,0 UV-I 0 W/m² 20,1 °C 99 %
_ Min-Zeit 05:40 17:00 05:10 - 00:40 - - - 05:40 07:20
Minimum _ 16,9 °C 44 % 1019,5 hPa - 0,0 km/h - - - 17,0 °C 91 %
_ Max-Zeit 16:20 00:40 00:30 00:40 11:00 20:10 13:40 13:40 17:30 00:40
Maximum _ 32,8 °C 94 % 1021,2 hPa 0,0 l/m² 11,3 km/h
O-SO
10 min 8,1 UV-I 868 W/m² 32,7 °C 100 %
Durchschnitt _ 24,7 °C 69 % 1020,1 hPa #0,0 l/m² 2,4 km/h #0 min. 0,0 UV-I 0 W/m² 24,6 °C 100 %